Etusivu
METAR-TAF:

METAR-TAF

Lentoasemat :

Eveleth-Virginia Municipal Airport

Eveleth, Minnesota, Yhdysvallat

Leveyspiiri: 47-24N, Pituuspiiri: 092-30W, korkeus merenpinnasta: 421 m

Tämänhetkinen sää

Tämä raportti tehtiin 27 minuuttia sitten, kello 15.56 UTC
Tuuli 4 kn pohjoisesta/koillisesta
Lämpötila -4°C
Kosteus 68%
Ilmanpaine 1026 hPa
Näkyvyys: 16.1 km
Pilvistä 5000 ft:n korkeudessa

METAR: KEVM 251556Z AUTO 03004KT 10SM OVC050 M04/M09 A3031 RMK AO2 T10371091

Aika: 10:23 (16:23 UTC)


TAF: puuttuu

Säähavainnot ja -ennusteet yli 4000 lentoasemalta (METAR- ja TAF-raportit).

Käytössä olevat sääasemat on merkitty karttaan keltaisilla ja punaisilla pisteillä.

Aseta hiiri pisteen päälle nähdäksesi sääaseman nimen.

Klikkaa sitten nähdäksesi säähavainnot ja -ennusteet.

Kartan vaihtaminen: klikkaa mustalla rastilla varustettuja vihreitä pisteitä, niin voit zoomata sisään; viivalla varustettua vihreää pistettä, niin voit zoomata ulos tai vihreitä nuolia, niin pääset viereisille kartoille.


METAR-TAF: